sensor_id;sensor_type;location;lat;lon;timestamp;P1;durP1;ratioP1;P2;durP2;ratioP2
40953;SDS011;26686;50.130;8.710;2023-09-18T00:02:22;6.90;;;3.28;;
40953;SDS011;26686;50.130;8.710;2023-09-18T00:07:24;4.80;;;3.47;;
40953;SDS011;26686;50.130;8.710;2023-09-18T00:12:25;4.43;;;3.70;;
40953;SDS011;26686;50.130;8.710;2023-09-18T00:17:26;4.75;;;3.13;;
40953;SDS011;26686;50.130;8.710;2023-09-18T00:22:28;4.18;;;2.85;;
40953;SDS011;26686;50.130;8.710;2023-09-18T00:27:30;3.92;;;2.70;;
40953;SDS011;26686;50.130;8.710;2023-09-18T00:32:33;4.28;;;3.10;;
40953;SDS011;26686;50.130;8.710;2023-09-18T00:37:35;4.05;;;3.05;;
40953;SDS011;26686;50.130;8.710;2023-09-18T00:47:39;5.43;;;2.95;;
40953;SDS011;26686;50.130;8.710;2023-09-18T00:52:41;5.45;;;3.47;;
40953;SDS011;26686;50.130;8.710;2023-09-18T00:57:43;4.95;;;3.42;;
40953;SDS011;26686;50.130;8.710;2023-09-18T01:02:46;4.07;;;3.47;;
40953;SDS011;26686;50.130;8.710;2023-09-18T01:07:47;3.80;;;3.22;;
40953;SDS011;26686;50.130;8.710;2023-09-18T01:12:53;4.28;;;3.58;;
40953;SDS011;26686;50.130;8.710;2023-09-18T01:18:01;7.53;;;3.38;;
40953;SDS011;26686;50.130;8.710;2023-09-18T01:23:05;5.40;;;3.47;;
40953;SDS011;26686;50.130;8.710;2023-09-18T01:28:06;4.30;;;3.90;;
40953;SDS011;26686;50.130;8.710;2023-09-18T01:33:08;4.32;;;3.60;;
40953;SDS011;26686;50.130;8.710;2023-09-18T01:38:11;3.83;;;3.45;;
40953;SDS011;26686;50.130;8.710;2023-09-18T01:43:13;4.25;;;3.72;;
40953;SDS011;26686;50.130;8.710;2023-09-18T01:48:14;4.70;;;3.22;;
40953;SDS011;26686;50.130;8.710;2023-09-18T01:53:16;4.55;;;3.70;;
40953;SDS011;26686;50.130;8.710;2023-09-18T01:58:17;4.75;;;3.90;;
40953;SDS011;26686;50.130;8.710;2023-09-18T02:03:19;3.70;;;3.22;;
40953;SDS011;26686;50.130;8.710;2023-09-18T02:08:42;3.72;;;3.42;;
40953;SDS011;26686;50.130;8.710;2023-09-18T02:13:43;6.28;;;2.80;;
40953;SDS011;26686;50.130;8.710;2023-09-18T02:18:45;5.25;;;3.45;;
40953;SDS011;26686;50.130;8.710;2023-09-18T02:23:49;3.95;;;3.55;;
40953;SDS011;26686;50.130;8.710;2023-09-18T02:28:55;6.60;;;4.05;;
40953;SDS011;26686;50.130;8.710;2023-09-18T02:34:05;4.15;;;3.75;;
40953;SDS011;26686;50.130;8.710;2023-09-18T02:39:08;4.93;;;4.47;;
40953;SDS011;26686;50.130;8.710;2023-09-18T02:44:09;4.57;;;3.70;;
40953;SDS011;26686;50.130;8.710;2023-09-18T02:49:11;4.00;;;3.60;;
40953;SDS011;26686;50.130;8.710;2023-09-18T02:54:12;4.40;;;4.00;;
40953;SDS011;26686;50.130;8.710;2023-09-18T02:59:13;4.22;;;3.42;;
40953;SDS011;26686;50.130;8.710;2023-09-18T03:04:15;4.10;;;3.58;;
40953;SDS011;26686;50.130;8.710;2023-09-18T03:09:16;6.72;;;3.55;;
40953;SDS011;26686;50.130;8.710;2023-09-18T03:14:17;6.63;;;4.22;;
40953;SDS011;26686;50.130;8.710;2023-09-18T03:19:19;4.53;;;3.63;;
40953;SDS011;26686;50.130;8.710;2023-09-18T03:24:20;6.72;;;4.07;;
40953;SDS011;26686;50.130;8.710;2023-09-18T03:29:22;4.72;;;4.03;;
40953;SDS011;26686;50.130;8.710;2023-09-18T03:34:23;4.25;;;3.10;;
40953;SDS011;26686;50.130;8.710;2023-09-18T03:39:28;4.25;;;3.60;;
40953;SDS011;26686;50.130;8.710;2023-09-18T03:44:30;5.80;;;4.65;;
40953;SDS011;26686;50.130;8.710;2023-09-18T03:49:31;4.78;;;3.75;;
40953;SDS011;26686;50.130;8.710;2023-09-18T03:54:32;8.23;;;4.38;;
40953;SDS011;26686;50.130;8.710;2023-09-18T03:59:34;4.30;;;3.72;;
40953;SDS011;26686;50.130;8.710;2023-09-18T04:04:35;5.65;;;4.60;;
40953;SDS011;26686;50.130;8.710;2023-09-18T04:09:37;5.05;;;4.35;;
40953;SDS011;26686;50.130;8.710;2023-09-18T04:14:39;6.72;;;4.03;;
40953;SDS011;26686;50.130;8.710;2023-09-18T04:19:40;5.10;;;3.53;;
40953;SDS011;26686;50.130;8.710;2023-09-18T04:24:42;6.85;;;3.97;;
40953;SDS011;26686;50.130;8.710;2023-09-18T04:29:43;6.45;;;3.60;;
40953;SDS011;26686;50.130;8.710;2023-09-18T04:34:44;7.15;;;4.03;;
40953;SDS011;26686;50.130;8.710;2023-09-18T04:39:47;9.30;;;3.60;;
40953;SDS011;26686;50.130;8.710;2023-09-18T04:44:48;6.18;;;3.90;;
40953;SDS011;26686;50.130;8.710;2023-09-18T04:49:49;3.85;;;3.20;;
40953;SDS011;26686;50.130;8.710;2023-09-18T04:54:51;6.05;;;3.90;;
40953;SDS011;26686;50.130;8.710;2023-09-18T04:59:52;6.15;;;3.92;;
40953;SDS011;26686;50.130;8.710;2023-09-18T05:05:14;7.45;;;4.55;;
40953;SDS011;26686;50.130;8.710;2023-09-18T05:10:15;7.15;;;4.00;;
40953;SDS011;26686;50.130;8.710;2023-09-18T05:15:17;7.63;;;3.72;;
40953;SDS011;26686;50.130;8.710;2023-09-18T05:20:19;6.15;;;3.72;;
40953;SDS011;26686;50.130;8.710;2023-09-18T05:25:21;6.95;;;3.60;;
40953;SDS011;26686;50.130;8.710;2023-09-18T05:30:27;6.77;;;3.80;;
40953;SDS011;26686;50.130;8.710;2023-09-18T05:35:31;8.18;;;4.20;;
40953;SDS011;26686;50.130;8.710;2023-09-18T05:40:37;7.90;;;4.38;;
40953;SDS011;26686;50.130;8.710;2023-09-18T05:45:39;5.75;;;3.22;;
40953;SDS011;26686;50.130;8.710;2023-09-18T05:50:41;4.73;;;2.87;;
40953;SDS011;26686;50.130;8.710;2023-09-18T05:55:43;4.50;;;3.28;;
40953;SDS011;26686;50.130;8.710;2023-09-18T06:00:45;8.45;;;3.28;;
40953;SDS011;26686;50.130;8.710;2023-09-18T06:05:47;5.75;;;3.53;;
40953;SDS011;26686;50.130;8.710;2023-09-18T06:10:49;7.72;;;3.47;;
40953;SDS011;26686;50.130;8.710;2023-09-18T06:15:50;7.40;;;3.47;;
40953;SDS011;26686;50.130;8.710;2023-09-18T06:25:55;9.98;;;3.03;;
40953;SDS011;26686;50.130;8.710;2023-09-18T06:30:57;9.50;;;3.10;;
40953;SDS011;26686;50.130;8.710;2023-09-18T06:35:59;5.47;;;3.13;;
40953;SDS011;26686;50.130;8.710;2023-09-18T06:41:00;9.43;;;3.85;;
40953;SDS011;26686;50.130;8.710;2023-09-18T06:46:01;6.93;;;3.35;;
40953;SDS011;26686;50.130;8.710;2023-09-18T06:51:03;9.38;;;3.47;;
40953;SDS011;26686;50.130;8.710;2023-09-18T06:56:04;9.40;;;4.32;;
40953;SDS011;26686;50.130;8.710;2023-09-18T07:01:07;9.83;;;3.60;;
40953;SDS011;26686;50.130;8.710;2023-09-18T07:06:10;8.18;;;3.13;;
40953;SDS011;26686;50.130;8.710;2023-09-18T07:11:11;9.88;;;3.78;;
40953;SDS011;26686;50.130;8.710;2023-09-18T07:16:13;5.10;;;2.78;;
40953;SDS011;26686;50.130;8.710;2023-09-18T07:21:14;5.82;;;2.63;;
40953;SDS011;26686;50.130;8.710;2023-09-18T07:26:16;6.28;;;2.78;;
40953;SDS011;26686;50.130;8.710;2023-09-18T07:31:17;8.88;;;3.17;;
40953;SDS011;26686;50.130;8.710;2023-09-18T07:36:19;7.20;;;3.33;;
40953;SDS011;26686;50.130;8.710;2023-09-18T07:41:22;11.98;;;3.72;;
40953;SDS011;26686;50.130;8.710;2023-09-18T07:46:24;8.07;;;2.92;;
40953;SDS011;26686;50.130;8.710;2023-09-18T07:51:25;6.00;;;3.08;;
40953;SDS011;26686;50.130;8.710;2023-09-18T07:56:26;8.27;;;3.35;;
40953;SDS011;26686;50.130;8.710;2023-09-18T08:01:28;9.88;;;4.00;;
40953;SDS011;26686;50.130;8.710;2023-09-18T08:06:33;7.72;;;2.40;;
40953;SDS011;26686;50.130;8.710;2023-09-18T08:11:34;8.18;;;3.53;;
40953;SDS011;26686;50.130;8.710;2023-09-18T08:16:37;7.38;;;2.90;;
40953;SDS011;26686;50.130;8.710;2023-09-18T08:21:39;6.75;;;2.92;;
40953;SDS011;26686;50.130;8.710;2023-09-18T08:26:41;6.95;;;2.58;;
40953;SDS011;26686;50.130;8.710;2023-09-18T08:31:43;11.18;;;3.20;;
40953;SDS011;26686;50.130;8.710;2023-09-18T08:36:44;7.50;;;3.15;;
40953;SDS011;26686;50.130;8.710;2023-09-18T08:41:46;5.70;;;2.78;;
40953;SDS011;26686;50.130;8.710;2023-09-18T08:46:51;5.88;;;2.33;;
40953;SDS011;26686;50.130;8.710;2023-09-18T08:51:54;8.18;;;2.17;;
40953;SDS011;26686;50.130;8.710;2023-09-18T08:56:56;7.10;;;2.30;;
40953;SDS011;26686;50.130;8.710;2023-09-18T09:01:58;7.18;;;2.42;;
40953;SDS011;26686;50.130;8.710;2023-09-18T09:06:59;8.45;;;2.50;;
40953;SDS011;26686;50.130;8.710;2023-09-18T09:12:01;3.85;;;1.90;;
40953;SDS011;26686;50.130;8.710;2023-09-18T09:17:02;10.60;;;2.67;;
40953;SDS011;26686;50.130;8.710;2023-09-18T09:22:05;6.77;;;2.30;;
40953;SDS011;26686;50.130;8.710;2023-09-18T09:27:07;6.85;;;2.72;;
40953;SDS011;26686;50.130;8.710;2023-09-18T09:32:16;4.53;;;2.17;;
40953;SDS011;26686;50.130;8.710;2023-09-18T09:37:19;5.28;;;1.95;;
40953;SDS011;26686;50.130;8.710;2023-09-18T09:42:37;7.07;;;1.75;;
40953;SDS011;26686;50.130;8.710;2023-09-18T09:47:40;3.03;;;1.60;;
40953;SDS011;26686;50.130;8.710;2023-09-18T09:52:42;7.05;;;1.65;;
40953;SDS011;26686;50.130;8.710;2023-09-18T09:57:49;4.85;;;1.98;;
40953;SDS011;26686;50.130;8.710;2023-09-18T10:02:56;6.80;;;1.75;;
40953;SDS011;26686;50.130;8.710;2023-09-18T10:08:07;8.00;;;1.90;;
40953;SDS011;26686;50.130;8.710;2023-09-18T10:13:25;4.93;;;1.70;;
40953;SDS011;26686;50.130;8.710;2023-09-18T10:29:21;5.93;;;1.42;;
40953;SDS011;26686;50.130;8.710;2023-09-18T10:34:25;6.10;;;1.50;;
40953;SDS011;26686;50.130;8.710;2023-09-18T10:39:26;6.22;;;1.58;;
40953;SDS011;26686;50.130;8.710;2023-09-18T10:44:31;4.50;;;0.65;;
40953;SDS011;26686;50.130;8.710;2023-09-18T10:49:36;2.25;;;0.52;;
40953;SDS011;26686;50.130;8.710;2023-09-18T10:54:37;1.92;;;0.63;;
40953;SDS011;26686;50.130;8.710;2023-09-18T10:59:45;2.63;;;0.80;;
40953;SDS011;26686;50.130;8.710;2023-09-18T11:04:47;2.47;;;0.88;;
40953;SDS011;26686;50.130;8.710;2023-09-18T11:09:49;4.57;;;0.63;;
40953;SDS011;26686;50.130;8.710;2023-09-18T11:14:58;1.55;;;0.60;;
40953;SDS011;26686;50.130;8.710;2023-09-18T11:30:55;2.38;;;0.95;;
40953;SDS011;26686;50.130;8.710;2023-09-18T11:36:06;2.88;;;0.60;;
40953;SDS011;26686;50.130;8.710;2023-09-18T11:41:19;3.30;;;0.80;;
40953;SDS011;26686;50.130;8.710;2023-09-18T11:46:23;2.25;;;0.70;;
40953;SDS011;26686;50.130;8.710;2023-09-18T11:51:26;1.83;;;0.73;;
40953;SDS011;26686;50.130;8.710;2023-09-18T11:56:29;1.83;;;0.70;;
40953;SDS011;26686;50.130;8.710;2023-09-18T12:01:31;4.35;;;1.00;;
40953;SDS011;26686;50.130;8.710;2023-09-18T12:06:38;2.80;;;0.80;;
40953;SDS011;26686;50.130;8.710;2023-09-18T12:11:41;1.60;;;0.50;;
40953;SDS011;26686;50.130;8.710;2023-09-18T12:16:43;2.88;;;0.90;;
40953;SDS011;26686;50.130;8.710;2023-09-18T12:21:46;3.10;;;0.80;;
40953;SDS011;26686;50.130;8.710;2023-09-18T12:26:49;5.20;;;0.60;;
40953;SDS011;26686;50.130;8.710;2023-09-18T12:31:50;2.40;;;1.20;;
40953;SDS011;26686;50.130;8.710;2023-09-18T12:36:53;6.07;;;1.50;;
40953;SDS011;26686;50.130;8.710;2023-09-18T12:41:55;3.13;;;0.85;;
40953;SDS011;26686;50.130;8.710;2023-09-18T12:46:58;4.57;;;0.85;;
40953;SDS011;26686;50.130;8.710;2023-09-18T12:52:00;4.40;;;1.35;;
40953;SDS011;26686;50.130;8.710;2023-09-18T12:57:08;2.33;;;0.70;;
40953;SDS011;26686;50.130;8.710;2023-09-18T13:02:12;2.13;;;0.80;;
40953;SDS011;26686;50.130;8.710;2023-09-18T13:07:15;3.33;;;1.20;;
40953;SDS011;26686;50.130;8.710;2023-09-18T13:12:16;1.98;;;0.93;;
40953;SDS011;26686;50.130;8.710;2023-09-18T13:17:17;4.63;;;1.33;;
40953;SDS011;26686;50.130;8.710;2023-09-18T13:22:25;3.70;;;1.10;;
40953;SDS011;26686;50.130;8.710;2023-09-18T13:27:27;4.65;;;1.50;;
40953;SDS011;26686;50.130;8.710;2023-09-18T13:32:28;1.95;;;0.95;;
40953;SDS011;26686;50.130;8.710;2023-09-18T13:37:31;4.00;;;0.73;;
40953;SDS011;26686;50.130;8.710;2023-09-18T13:42:39;6.45;;;1.27;;
40953;SDS011;26686;50.130;8.710;2023-09-18T13:47:41;2.90;;;1.10;;
40953;SDS011;26686;50.130;8.710;2023-09-18T13:52:42;6.28;;;1.10;;
40953;SDS011;26686;50.130;8.710;2023-09-18T13:57:43;3.10;;;1.20;;
40953;SDS011;26686;50.130;8.710;2023-09-18T14:02:45;4.03;;;1.00;;
40953;SDS011;26686;50.130;8.710;2023-09-18T14:07:46;4.07;;;1.20;;
40953;SDS011;26686;50.130;8.710;2023-09-18T14:12:48;4.85;;;1.20;;
40953;SDS011;26686;50.130;8.710;2023-09-18T14:17:51;3.78;;;1.20;;
40953;SDS011;26686;50.130;8.710;2023-09-18T14:22:53;3.60;;;1.10;;
40953;SDS011;26686;50.130;8.710;2023-09-18T14:27:54;3.33;;;1.35;;
40953;SDS011;26686;50.130;8.710;2023-09-18T14:32:56;1.70;;;0.80;;
40953;SDS011;26686;50.130;8.710;2023-09-18T14:37:57;2.15;;;0.90;;
40953;SDS011;26686;50.130;8.710;2023-09-18T14:42:59;2.42;;;1.08;;
40953;SDS011;26686;50.130;8.710;2023-09-18T14:48:00;5.03;;;1.00;;
40953;SDS011;26686;50.130;8.710;2023-09-18T14:53:02;5.55;;;1.42;;
40953;SDS011;26686;50.130;8.710;2023-09-18T14:58:04;3.65;;;1.17;;
40953;SDS011;26686;50.130;8.710;2023-09-18T15:03:07;2.92;;;1.02;;
40953;SDS011;26686;50.130;8.710;2023-09-18T15:08:09;3.85;;;1.10;;
40953;SDS011;26686;50.130;8.710;2023-09-18T15:13:11;3.45;;;1.02;;
40953;SDS011;26686;50.130;8.710;2023-09-18T15:18:12;2.92;;;0.90;;
40953;SDS011;26686;50.130;8.710;2023-09-18T15:23:14;2.50;;;1.38;;
40953;SDS011;26686;50.130;8.710;2023-09-18T15:28:16;4.10;;;1.25;;
40953;SDS011;26686;50.130;8.710;2023-09-18T15:33:21;5.20;;;1.20;;
40953;SDS011;26686;50.130;8.710;2023-09-18T15:38:26;3.50;;;1.33;;
40953;SDS011;26686;50.130;8.710;2023-09-18T15:43:28;2.83;;;1.00;;
40953;SDS011;26686;50.130;8.710;2023-09-18T15:48:35;3.95;;;1.40;;
40953;SDS011;26686;50.130;8.710;2023-09-18T15:53:36;3.65;;;1.42;;
40953;SDS011;26686;50.130;8.710;2023-09-18T15:58:38;3.13;;;1.52;;
40953;SDS011;26686;50.130;8.710;2023-09-18T16:03:40;3.05;;;0.88;;
40953;SDS011;26686;50.130;8.710;2023-09-18T16:08:48;2.72;;;1.13;;
40953;SDS011;26686;50.130;8.710;2023-09-18T16:13:54;5.75;;;1.67;;
40953;SDS011;26686;50.130;8.710;2023-09-18T16:18:57;3.50;;;1.60;;
40953;SDS011;26686;50.130;8.710;2023-09-18T16:23:58;3.17;;;1.85;;
40953;SDS011;26686;50.130;8.710;2023-09-18T16:29:00;3.50;;;1.05;;
40953;SDS011;26686;50.130;8.710;2023-09-18T16:34:02;4.47;;;1.65;;
40953;SDS011;26686;50.130;8.710;2023-09-18T16:39:05;5.05;;;1.27;;
40953;SDS011;26686;50.130;8.710;2023-09-18T16:44:07;7.05;;;1.55;;
40953;SDS011;26686;50.130;8.710;2023-09-18T16:49:09;3.60;;;1.15;;
40953;SDS011;26686;50.130;8.710;2023-09-18T16:54:12;3.05;;;1.48;;
40953;SDS011;26686;50.130;8.710;2023-09-18T16:59:17;4.18;;;1.40;;
40953;SDS011;26686;50.130;8.710;2023-09-18T17:04:18;8.35;;;2.50;;
40953;SDS011;26686;50.130;8.710;2023-09-18T17:09:20;4.03;;;1.23;;
40953;SDS011;26686;50.130;8.710;2023-09-18T17:14:22;2.30;;;1.63;;
40953;SDS011;26686;50.130;8.710;2023-09-18T17:19:23;4.35;;;1.40;;
40953;SDS011;26686;50.130;8.710;2023-09-18T17:24:24;3.60;;;1.33;;
40953;SDS011;26686;50.130;8.710;2023-09-18T17:29:26;2.05;;;1.10;;
40953;SDS011;26686;50.130;8.710;2023-09-18T17:34:28;4.03;;;1.63;;
40953;SDS011;26686;50.130;8.710;2023-09-18T17:39:30;8.43;;;1.70;;
40953;SDS011;26686;50.130;8.710;2023-09-18T17:44:31;6.05;;;2.10;;
40953;SDS011;26686;50.130;8.710;2023-09-18T17:49:32;2.63;;;1.45;;
40953;SDS011;26686;50.130;8.710;2023-09-18T17:54:36;4.07;;;1.60;;
40953;SDS011;26686;50.130;8.710;2023-09-18T17:59:39;3.95;;;1.98;;
40953;SDS011;26686;50.130;8.710;2023-09-18T18:04:40;2.72;;;1.63;;
40953;SDS011;26686;50.130;8.710;2023-09-18T18:09:42;5.35;;;1.60;;
40953;SDS011;26686;50.130;8.710;2023-09-18T18:14:43;2.20;;;1.23;;
40953;SDS011;26686;50.130;8.710;2023-09-18T18:19:45;1.92;;;1.20;;
40953;SDS011;26686;50.130;8.710;2023-09-18T18:24:48;2.25;;;0.88;;
40953;SDS011;26686;50.130;8.710;2023-09-18T18:29:51;4.80;;;1.15;;
40953;SDS011;26686;50.130;8.710;2023-09-18T18:34:58;3.78;;;0.95;;
40953;SDS011;26686;50.130;8.710;2023-09-18T18:40:00;1.77;;;0.88;;
40953;SDS011;26686;50.130;8.710;2023-09-18T18:45:01;2.80;;;1.17;;
40953;SDS011;26686;50.130;8.710;2023-09-18T18:50:03;2.20;;;0.90;;
40953;SDS011;26686;50.130;8.710;2023-09-18T18:55:05;3.25;;;1.05;;
40953;SDS011;26686;50.130;8.710;2023-09-18T19:00:09;2.90;;;1.70;;
40953;SDS011;26686;50.130;8.710;2023-09-18T19:05:12;3.95;;;1.20;;
40953;SDS011;26686;50.130;8.710;2023-09-18T19:10:14;1.98;;;1.30;;
40953;SDS011;26686;50.130;8.710;2023-09-18T19:15:15;3.80;;;1.27;;
40953;SDS011;26686;50.130;8.710;2023-09-18T19:20:17;3.63;;;0.93;;
40953;SDS011;26686;50.130;8.710;2023-09-18T19:25:19;3.90;;;1.23;;
40953;SDS011;26686;50.130;8.710;2023-09-18T19:30:22;3.45;;;1.50;;
40953;SDS011;26686;50.130;8.710;2023-09-18T19:35:23;3.38;;;1.17;;
40953;SDS011;26686;50.130;8.710;2023-09-18T19:40:25;1.83;;;0.80;;
40953;SDS011;26686;50.130;8.710;2023-09-18T19:45:29;1.30;;;0.88;;
40953;SDS011;26686;50.130;8.710;2023-09-18T19:50:30;2.35;;;0.88;;
40953;SDS011;26686;50.130;8.710;2023-09-18T19:55:33;3.08;;;0.95;;
40953;SDS011;26686;50.130;8.710;2023-09-18T20:00:34;2.20;;;0.63;;
40953;SDS011;26686;50.130;8.710;2023-09-18T20:05:37;1.58;;;0.60;;
40953;SDS011;26686;50.130;8.710;2023-09-18T20:10:39;3.42;;;0.93;;
40953;SDS011;26686;50.130;8.710;2023-09-18T20:15:41;1.23;;;0.30;;
40953;SDS011;26686;50.130;8.710;2023-09-18T20:20:42;0.50;;;0.30;;
40953;SDS011;26686;50.130;8.710;2023-09-18T20:25:44;1.08;;;0.20;;
40953;SDS011;26686;50.130;8.710;2023-09-18T20:30:50;1.67;;;0.10;;
40953;SDS011;26686;50.130;8.710;2023-09-18T20:35:56;1.40;;;0.75;;
40953;SDS011;26686;50.130;8.710;2023-09-18T20:41:02;1.67;;;0.40;;
40953;SDS011;26686;50.130;8.710;2023-09-18T20:46:03;1.90;;;0.40;;
40953;SDS011;26686;50.130;8.710;2023-09-18T20:51:06;1.00;;;0.45;;
40953;SDS011;26686;50.130;8.710;2023-09-18T20:56:08;1.05;;;0.25;;
40953;SDS011;26686;50.130;8.710;2023-09-18T21:01:09;2.33;;;0.20;;
40953;SDS011;26686;50.130;8.710;2023-09-18T21:06:11;2.10;;;0.35;;
40953;SDS011;26686;50.130;8.710;2023-09-18T21:11:13;1.55;;;0.30;;
40953;SDS011;26686;50.130;8.710;2023-09-18T21:16:15;2.65;;;0.47;;
40953;SDS011;26686;50.130;8.710;2023-09-18T21:21:17;1.27;;;0.50;;
40953;SDS011;26686;50.130;8.710;2023-09-18T21:26:18;2.70;;;0.30;;
40953;SDS011;26686;50.130;8.710;2023-09-18T21:31:20;1.58;;;0.40;;
40953;SDS011;26686;50.130;8.710;2023-09-18T21:36:23;2.53;;;0.63;;
40953;SDS011;26686;50.130;8.710;2023-09-18T21:41:27;1.10;;;0.40;;
40953;SDS011;26686;50.130;8.710;2023-09-18T21:46:28;1.17;;;0.32;;
40953;SDS011;26686;50.130;8.710;2023-09-18T21:56:39;3.28;;;0.70;;
40953;SDS011;26686;50.130;8.710;2023-09-18T22:01:41;1.85;;;0.68;;
40953;SDS011;26686;50.130;8.710;2023-09-18T22:06:43;1.85;;;0.47;;
40953;SDS011;26686;50.130;8.710;2023-09-18T22:11:45;2.97;;;0.60;;
40953;SDS011;26686;50.130;8.710;2023-09-18T22:16:46;2.42;;;0.60;;
40953;SDS011;26686;50.130;8.710;2023-09-18T22:21:48;1.38;;;0.70;;
40953;SDS011;26686;50.130;8.710;2023-09-18T22:26:49;1.65;;;0.60;;
40953;SDS011;26686;50.130;8.710;2023-09-18T22:31:50;3.97;;;0.70;;
40953;SDS011;26686;50.130;8.710;2023-09-18T22:36:55;2.63;;;0.68;;
40953;SDS011;26686;50.130;8.710;2023-09-18T22:57:44;4.30;;;0.88;;
40953;SDS011;26686;50.130;8.710;2023-09-18T23:02:48;1.00;;;0.60;;
40953;SDS011;26686;50.130;8.710;2023-09-18T23:07:52;2.33;;;0.60;;
40953;SDS011;26686;50.130;8.710;2023-09-18T23:12:58;4.75;;;1.02;;
40953;SDS011;26686;50.130;8.710;2023-09-18T23:18:05;2.33;;;0.70;;
40953;SDS011;26686;50.130;8.710;2023-09-18T23:23:07;2.08;;;0.82;;
40953;SDS011;26686;50.130;8.710;2023-09-18T23:28:09;2.13;;;0.70;;
40953;SDS011;26686;50.130;8.710;2023-09-18T23:33:11;1.85;;;0.75;;
40953;SDS011;26686;50.130;8.710;2023-09-18T23:38:12;1.70;;;0.77;;
40953;SDS011;26686;50.130;8.710;2023-09-18T23:43:13;1.13;;;0.63;;
40953;SDS011;26686;50.130;8.710;2023-09-18T23:48:17;1.10;;;0.63;;
40953;SDS011;26686;50.130;8.710;2023-09-18T23:53:22;2.80;;;0.82;;
40953;SDS011;26686;50.130;8.710;2023-09-18T23:58:25;1.75;;;0.50;;
